sensor_id;sensor_type;location;lat;lon;timestamp;temperature;humidity
20568;DHT22;10442;49.932;11.592;2023-02-28T00:01:22;0.30;63.50
20568;DHT22;10442;49.932;11.592;2023-02-28T00:03:50;0.20;63.40
20568;DHT22;10442;49.932;11.592;2023-02-28T00:06:18;0.20;63.50
20568;DHT22;10442;49.932;11.592;2023-02-28T00:08:45;0.20;63.60
20568;DHT22;10442;49.932;11.592;2023-02-28T00:11:14;0.20;63.60
20568;DHT22;10442;49.932;11.592;2023-02-28T00:13:44;0.10;63.70
20568;DHT22;10442;49.932;11.592;2023-02-28T00:16:20;0.10;63.70
20568;DHT22;10442;49.932;11.592;2023-02-28T00:18:48;0.00;63.70
20568;DHT22;10442;49.932;11.592;2023-02-28T00:21:17;0.10;63.90
20568;DHT22;10442;49.932;11.592;2023-02-28T00:23:46;0.00;63.90
20568;DHT22;10442;49.932;11.592;2023-02-28T00:26:14;-0.10;63.90
20568;DHT22;10442;49.932;11.592;2023-02-28T00:28:45;-0.10;64.30
20568;DHT22;10442;49.932;11.592;2023-02-28T00:31:12;-0.10;64.40
20568;DHT22;10442;49.932;11.592;2023-02-28T00:33:40;-0.20;64.30
20568;DHT22;10442;49.932;11.592;2023-02-28T00:36:10;-0.20;64.30
20568;DHT22;10442;49.932;11.592;2023-02-28T00:38:39;-0.20;64.40
20568;DHT22;10442;49.932;11.592;2023-02-28T00:41:07;-0.20;64.40
20568;DHT22;10442;49.932;11.592;2023-02-28T00:43:36;-0.30;64.60
20568;DHT22;10442;49.932;11.592;2023-02-28T00:46:04;-0.30;64.80
20568;DHT22;10442;49.932;11.592;2023-02-28T00:48:32;-0.30;64.80
20568;DHT22;10442;49.932;11.592;2023-02-28T00:51:00;-0.30;64.70
20568;DHT22;10442;49.932;11.592;2023-02-28T00:53:28;-0.30;64.90
20568;DHT22;10442;49.932;11.592;2023-02-28T00:55:57;-0.30;64.80
20568;DHT22;10442;49.932;11.592;2023-02-28T00:58:26;-0.30;64.90
20568;DHT22;10442;49.932;11.592;2023-02-28T01:00:53;-0.30;65.00
20568;DHT22;10442;49.932;11.592;2023-02-28T01:03:21;-0.30;65.10
20568;DHT22;10442;49.932;11.592;2023-02-28T01:05:50;-0.40;65.00
20568;DHT22;10442;49.932;11.592;2023-02-28T01:08:17;-0.40;65.00
20568;DHT22;10442;49.932;11.592;2023-02-28T01:10:45;-0.40;65.00
20568;DHT22;10442;49.932;11.592;2023-02-28T01:13:12;-0.40;64.90
20568;DHT22;10442;49.932;11.592;2023-02-28T01:15:46;-0.40;64.80
20568;DHT22;10442;49.932;11.592;2023-02-28T01:18:16;-0.40;64.80
20568;DHT22;10442;49.932;11.592;2023-02-28T01:20:43;-0.40;64.90
20568;DHT22;10442;49.932;11.592;2023-02-28T01:23:11;-0.50;64.90
20568;DHT22;10442;49.932;11.592;2023-02-28T01:25:38;-0.50;65.00
20568;DHT22;10442;49.932;11.592;2023-02-28T01:28:06;-0.50;65.00
20568;DHT22;10442;49.932;11.592;2023-02-28T01:30:34;-0.50;65.00
20568;DHT22;10442;49.932;11.592;2023-02-28T01:33:02;-0.50;65.10
20568;DHT22;10442;49.932;11.592;2023-02-28T01:35:33;-0.60;65.10
20568;DHT22;10442;49.932;11.592;2023-02-28T01:38:02;-0.60;65.10
20568;DHT22;10442;49.932;11.592;2023-02-28T01:40:47;-0.50;65.40
20568;DHT22;10442;49.932;11.592;2023-02-28T01:45:48;-0.70;65.70
20568;DHT22;10442;49.932;11.592;2023-02-28T01:48:15;-0.70;65.70
20568;DHT22;10442;49.932;11.592;2023-02-28T01:50:45;-0.70;65.90
20568;DHT22;10442;49.932;11.592;2023-02-28T01:53:18;-0.70;65.90
20568;DHT22;10442;49.932;11.592;2023-02-28T01:55:48;-0.80;65.90
20568;DHT22;10442;49.932;11.592;2023-02-28T01:58:17;-0.80;65.90
20568;DHT22;10442;49.932;11.592;2023-02-28T02:00:46;-0.80;66.00
20568;DHT22;10442;49.932;11.592;2023-02-28T02:03:16;-0.80;66.10
20568;DHT22;10442;49.932;11.592;2023-02-28T02:05:48;-0.70;66.20
20568;DHT22;10442;49.932;11.592;2023-02-28T02:08:24;-0.80;66.00
20568;DHT22;10442;49.932;11.592;2023-02-28T02:10:55;-0.80;66.30
20568;DHT22;10442;49.932;11.592;2023-02-28T02:13:35;-0.80;66.50
20568;DHT22;10442;49.932;11.592;2023-02-28T02:19:04;-0.80;66.60
20568;DHT22;10442;49.932;11.592;2023-02-28T02:25:04;-0.90;66.60
20568;DHT22;10442;49.932;11.592;2023-02-28T02:27:46;-0.80;66.80
20568;DHT22;10442;49.932;11.592;2023-02-28T02:30:33;-0.90;66.60
20568;DHT22;10442;49.932;11.592;2023-02-28T02:41:21;-1.00;66.30
20568;DHT22;10442;49.932;11.592;2023-02-28T02:44:21;-1.10;66.50
20568;DHT22;10442;49.932;11.592;2023-02-28T02:46:47;-1.10;66.50
20568;DHT22;10442;49.932;11.592;2023-02-28T02:49:21;-1.10;66.40
20568;DHT22;10442;49.932;11.592;2023-02-28T02:51:49;-1.00;66.60
20568;DHT22;10442;49.932;11.592;2023-02-28T02:54:24;-1.20;66.90
20568;DHT22;10442;49.932;11.592;2023-02-28T02:57:00;-1.20;67.00
20568;DHT22;10442;49.932;11.592;2023-02-28T02:59:30;-1.30;67.20
20568;DHT22;10442;49.932;11.592;2023-02-28T03:02:00;-1.40;68.00
20568;DHT22;10442;49.932;11.592;2023-02-28T03:04:40;-1.30;67.50
20568;DHT22;10442;49.932;11.592;2023-02-28T03:07:09;-1.40;67.60
20568;DHT22;10442;49.932;11.592;2023-02-28T03:09:37;-1.50;68.40
20568;DHT22;10442;49.932;11.592;2023-02-28T03:12:11;-1.50;67.90
20568;DHT22;10442;49.932;11.592;2023-02-28T03:20:26;-1.60;68.10
20568;DHT22;10442;49.932;11.592;2023-02-28T03:23:07;-1.60;68.00
20568;DHT22;10442;49.932;11.592;2023-02-28T03:28:41;-1.60;68.00
20568;DHT22;10442;49.932;11.592;2023-02-28T03:31:36;-1.70;68.00
20568;DHT22;10442;49.932;11.592;2023-02-28T03:34:14;-1.60;68.00
20568;DHT22;10442;49.932;11.592;2023-02-28T03:36:48;-1.70;67.90
20568;DHT22;10442;49.932;11.592;2023-02-28T03:42:29;-1.80;67.90
20568;DHT22;10442;49.932;11.592;2023-02-28T03:45:02;-1.80;68.20
20568;DHT22;10442;49.932;11.592;2023-02-28T03:47:39;-1.80;68.30
20568;DHT22;10442;49.932;11.592;2023-02-28T03:50:10;-1.80;68.80
20568;DHT22;10442;49.932;11.592;2023-02-28T03:52:47;-1.80;69.60
20568;DHT22;10442;49.932;11.592;2023-02-28T03:55:16;-1.80;69.90
20568;DHT22;10442;49.932;11.592;2023-02-28T03:57:56;-1.80;69.80
20568;DHT22;10442;49.932;11.592;2023-02-28T04:00:31;-1.70;69.80
20568;DHT22;10442;49.932;11.592;2023-02-28T04:03:02;-1.70;70.10
20568;DHT22;10442;49.932;11.592;2023-02-28T04:05:31;-1.60;70.70
20568;DHT22;10442;49.932;11.592;2023-02-28T04:08:04;-1.50;71.40
20568;DHT22;10442;49.932;11.592;2023-02-28T04:10:32;-1.40;71.60
20568;DHT22;10442;49.932;11.592;2023-02-28T04:13:01;-1.30;71.40
20568;DHT22;10442;49.932;11.592;2023-02-28T04:15:28;-1.10;71.40
20568;DHT22;10442;49.932;11.592;2023-02-28T04:17:56;-1.00;71.30
20568;DHT22;10442;49.932;11.592;2023-02-28T04:20:23;-0.90;71.20
20568;DHT22;10442;49.932;11.592;2023-02-28T04:22:51;-0.80;70.80
20568;DHT22;10442;49.932;11.592;2023-02-28T04:25:18;-0.60;70.70
20568;DHT22;10442;49.932;11.592;2023-02-28T04:27:46;-0.50;70.50
20568;DHT22;10442;49.932;11.592;2023-02-28T04:30:13;-0.50;70.10
20568;DHT22;10442;49.932;11.592;2023-02-28T04:32:40;-0.30;70.70
20568;DHT22;10442;49.932;11.592;2023-02-28T04:35:08;-0.30;69.60
20568;DHT22;10442;49.932;11.592;2023-02-28T04:37:38;-0.20;69.20
20568;DHT22;10442;49.932;11.592;2023-02-28T04:40:06;-0.20;68.90
20568;DHT22;10442;49.932;11.592;2023-02-28T04:42:34;-0.10;68.70
20568;DHT22;10442;49.932;11.592;2023-02-28T04:45:03;-0.10;68.50
20568;DHT22;10442;49.932;11.592;2023-02-28T04:47:31;-0.10;68.40
20568;DHT22;10442;49.932;11.592;2023-02-28T04:49:58;-0.10;68.20
20568;DHT22;10442;49.932;11.592;2023-02-28T04:52:27;0.00;68.10
20568;DHT22;10442;49.932;11.592;2023-02-28T04:54:54;0.00;68.00
20568;DHT22;10442;49.932;11.592;2023-02-28T04:57:22;0.00;68.10
20568;DHT22;10442;49.932;11.592;2023-02-28T04:59:49;0.00;68.00
20568;DHT22;10442;49.932;11.592;2023-02-28T05:02:17;0.00;68.00
20568;DHT22;10442;49.932;11.592;2023-02-28T05:04:44;0.00;67.80
20568;DHT22;10442;49.932;11.592;2023-02-28T05:07:12;0.10;67.70
20568;DHT22;10442;49.932;11.592;2023-02-28T05:09:39;0.10;67.50
20568;DHT22;10442;49.932;11.592;2023-02-28T05:12:07;0.10;67.60
20568;DHT22;10442;49.932;11.592;2023-02-28T05:14:35;0.20;67.60
20568;DHT22;10442;49.932;11.592;2023-02-28T05:17:03;0.20;67.60
20568;DHT22;10442;49.932;11.592;2023-02-28T05:19:31;0.20;67.50
20568;DHT22;10442;49.932;11.592;2023-02-28T05:21:58;0.20;67.50
20568;DHT22;10442;49.932;11.592;2023-02-28T05:24:26;0.30;67.50
20568;DHT22;10442;49.932;11.592;2023-02-28T05:26:54;0.30;67.50
20568;DHT22;10442;49.932;11.592;2023-02-28T05:29:22;0.30;67.40
20568;DHT22;10442;49.932;11.592;2023-02-28T05:31:49;0.40;67.40
20568;DHT22;10442;49.932;11.592;2023-02-28T05:34:17;0.40;67.40
20568;DHT22;10442;49.932;11.592;2023-02-28T05:36:45;0.50;67.30
20568;DHT22;10442;49.932;11.592;2023-02-28T05:39:12;0.50;67.30
20568;DHT22;10442;49.932;11.592;2023-02-28T05:41:41;0.50;67.30
20568;DHT22;10442;49.932;11.592;2023-02-28T05:44:09;0.60;67.20
20568;DHT22;10442;49.932;11.592;2023-02-28T05:46:37;0.60;67.10
20568;DHT22;10442;49.932;11.592;2023-02-28T05:49:05;0.70;67.10
20568;DHT22;10442;49.932;11.592;2023-02-28T05:51:32;0.70;67.00
20568;DHT22;10442;49.932;11.592;2023-02-28T05:54:01;0.70;66.80
20568;DHT22;10442;49.932;11.592;2023-02-28T05:56:29;0.70;66.70
20568;DHT22;10442;49.932;11.592;2023-02-28T05:58:56;0.70;66.50
20568;DHT22;10442;49.932;11.592;2023-02-28T06:04:04;0.80;66.50
20568;DHT22;10442;49.932;11.592;2023-02-28T06:06:32;0.80;66.30
20568;DHT22;10442;49.932;11.592;2023-02-28T06:09:04;0.80;66.30
20568;DHT22;10442;49.932;11.592;2023-02-28T06:11:33;0.90;66.30
20568;DHT22;10442;49.932;11.592;2023-02-28T06:14:01;0.80;66.20
20568;DHT22;10442;49.932;11.592;2023-02-28T06:16:30;0.90;66.20
20568;DHT22;10442;49.932;11.592;2023-02-28T06:18:59;0.90;66.10
20568;DHT22;10442;49.932;11.592;2023-02-28T06:21:27;1.00;66.10
20568;DHT22;10442;49.932;11.592;2023-02-28T06:23:57;1.00;66.00
20568;DHT22;10442;49.932;11.592;2023-02-28T06:26:24;1.00;65.80
20568;DHT22;10442;49.932;11.592;2023-02-28T06:28:52;1.00;65.80
20568;DHT22;10442;49.932;11.592;2023-02-28T06:31:20;1.10;65.90
20568;DHT22;10442;49.932;11.592;2023-02-28T06:33:49;1.10;65.80
20568;DHT22;10442;49.932;11.592;2023-02-28T06:36:17;1.10;65.70
20568;DHT22;10442;49.932;11.592;2023-02-28T06:38:45;1.10;65.60
20568;DHT22;10442;49.932;11.592;2023-02-28T06:41:15;1.20;65.70
20568;DHT22;10442;49.932;11.592;2023-02-28T06:43:43;1.20;65.60
20568;DHT22;10442;49.932;11.592;2023-02-28T06:46:13;1.30;65.50
20568;DHT22;10442;49.932;11.592;2023-02-28T06:48:44;1.30;65.40
20568;DHT22;10442;49.932;11.592;2023-02-28T06:51:18;1.40;65.30
20568;DHT22;10442;49.932;11.592;2023-02-28T06:53:47;1.50;65.20
20568;DHT22;10442;49.932;11.592;2023-02-28T06:56:16;1.50;65.00
20568;DHT22;10442;49.932;11.592;2023-02-28T06:58:48;1.60;64.80
20568;DHT22;10442;49.932;11.592;2023-02-28T07:01:17;1.60;64.70
20568;DHT22;10442;49.932;11.592;2023-02-28T07:03:46;1.60;64.70
20568;DHT22;10442;49.932;11.592;2023-02-28T07:06:14;1.70;64.70
20568;DHT22;10442;49.932;11.592;2023-02-28T07:08:41;1.70;64.60
20568;DHT22;10442;49.932;11.592;2023-02-28T07:11:08;1.70;64.50
20568;DHT22;10442;49.932;11.592;2023-02-28T07:13:36;1.70;64.70
20568;DHT22;10442;49.932;11.592;2023-02-28T07:16:06;1.80;65.40
20568;DHT22;10442;49.932;11.592;2023-02-28T07:18:37;1.80;64.60
20568;DHT22;10442;49.932;11.592;2023-02-28T07:21:08;1.80;64.60
20568;DHT22;10442;49.932;11.592;2023-02-28T07:23:36;1.90;64.60
20568;DHT22;10442;49.932;11.592;2023-02-28T07:26:11;1.90;64.50
20568;DHT22;10442;49.932;11.592;2023-02-28T07:28:42;2.00;64.50
20568;DHT22;10442;49.932;11.592;2023-02-28T07:31:12;2.00;64.30
20568;DHT22;10442;49.932;11.592;2023-02-28T07:33:41;2.10;64.50
20568;DHT22;10442;49.932;11.592;2023-02-28T07:36:12;2.10;64.50
20568;DHT22;10442;49.932;11.592;2023-02-28T07:38:43;2.10;64.30
20568;DHT22;10442;49.932;11.592;2023-02-28T07:41:21;2.20;64.30
20568;DHT22;10442;49.932;11.592;2023-02-28T07:43:53;2.20;64.10
20568;DHT22;10442;49.932;11.592;2023-02-28T07:46:23;2.30;64.00
20568;DHT22;10442;49.932;11.592;2023-02-28T07:48:50;2.30;64.10
20568;DHT22;10442;49.932;11.592;2023-02-28T07:51:18;2.40;64.10
20568;DHT22;10442;49.932;11.592;2023-02-28T07:53:46;2.40;64.10
20568;DHT22;10442;49.932;11.592;2023-02-28T07:56:13;2.50;64.20
20568;DHT22;10442;49.932;11.592;2023-02-28T07:58:41;2.60;64.20
20568;DHT22;10442;49.932;11.592;2023-02-28T08:01:10;2.70;63.90
20568;DHT22;10442;49.932;11.592;2023-02-28T08:03:38;2.80;63.80
20568;DHT22;10442;49.932;11.592;2023-02-28T08:06:08;2.90;63.70
20568;DHT22;10442;49.932;11.592;2023-02-28T08:08:42;3.10;63.60
20568;DHT22;10442;49.932;11.592;2023-02-28T08:11:09;3.40;63.70
20568;DHT22;10442;49.932;11.592;2023-02-28T08:13:37;3.60;63.00
20568;DHT22;10442;49.932;11.592;2023-02-28T08:16:05;3.90;62.50
20568;DHT22;10442;49.932;11.592;2023-02-28T08:18:32;4.30;63.10
20568;DHT22;10442;49.932;11.592;2023-02-28T08:21:07;4.80;62.10
20568;DHT22;10442;49.932;11.592;2023-02-28T08:23:34;5.20;60.00
20568;DHT22;10442;49.932;11.592;2023-02-28T08:26:03;5.60;59.30
20568;DHT22;10442;49.932;11.592;2023-02-28T08:28:31;6.00;58.20
20568;DHT22;10442;49.932;11.592;2023-02-28T08:30:58;6.40;57.00
20568;DHT22;10442;49.932;11.592;2023-02-28T08:33:27;6.70;54.60
20568;DHT22;10442;49.932;11.592;2023-02-28T08:35:56;7.00;53.90
20568;DHT22;10442;49.932;11.592;2023-02-28T08:38:23;7.30;53.60
20568;DHT22;10442;49.932;11.592;2023-02-28T08:40:58;7.50;52.50
20568;DHT22;10442;49.932;11.592;2023-02-28T08:43:26;7.60;51.80
20568;DHT22;10442;49.932;11.592;2023-02-28T08:45:55;7.50;51.30
20568;DHT22;10442;49.932;11.592;2023-02-28T08:48:29;7.30;50.40
20568;DHT22;10442;49.932;11.592;2023-02-28T08:51:02;6.90;50.80
20568;DHT22;10442;49.932;11.592;2023-02-28T08:53:36;6.60;51.10
20568;DHT22;10442;49.932;11.592;2023-02-28T08:56:10;6.30;51.50
20568;DHT22;10442;49.932;11.592;2023-02-28T08:58:39;6.10;51.80
20568;DHT22;10442;49.932;11.592;2023-02-28T09:01:17;5.90;52.30
20568;DHT22;10442;49.932;11.592;2023-02-28T09:03:47;5.70;52.70
20568;DHT22;10442;49.932;11.592;2023-02-28T09:06:16;5.50;52.60
20568;DHT22;10442;49.932;11.592;2023-02-28T09:08:44;5.30;52.60
20568;DHT22;10442;49.932;11.592;2023-02-28T09:11:12;5.10;53.00
20568;DHT22;10442;49.932;11.592;2023-02-28T09:13:40;5.00;53.20
20568;DHT22;10442;49.932;11.592;2023-02-28T09:16:12;4.90;53.50
20568;DHT22;10442;49.932;11.592;2023-02-28T09:18:40;4.80;53.70
20568;DHT22;10442;49.932;11.592;2023-02-28T09:21:12;4.80;54.00
20568;DHT22;10442;49.932;11.592;2023-02-28T09:23:43;4.70;54.00
20568;DHT22;10442;49.932;11.592;2023-02-28T09:26:17;4.70;54.10
20568;DHT22;10442;49.932;11.592;2023-02-28T09:28:44;4.60;54.10
20568;DHT22;10442;49.932;11.592;2023-02-28T09:31:15;4.50;54.20
20568;DHT22;10442;49.932;11.592;2023-02-28T09:33:43;4.50;54.40
20568;DHT22;10442;49.932;11.592;2023-02-28T09:36:11;4.60;54.70
20568;DHT22;10442;49.932;11.592;2023-02-28T09:38:39;4.50;54.80
20568;DHT22;10442;49.932;11.592;2023-02-28T09:41:17;4.50;54.50
20568;DHT22;10442;49.932;11.592;2023-02-28T09:43:50;4.50;54.60
20568;DHT22;10442;49.932;11.592;2023-02-28T09:46:36;4.60;54.90
20568;DHT22;10442;49.932;11.592;2023-02-28T09:49:12;4.70;55.00
20568;DHT22;10442;49.932;11.592;2023-02-28T09:51:56;4.70;54.90
20568;DHT22;10442;49.932;11.592;2023-02-28T09:54:30;4.70;55.00
20568;DHT22;10442;49.932;11.592;2023-02-28T09:57:26;4.60;54.30
20568;DHT22;10442;49.932;11.592;2023-02-28T10:08:40;4.80;54.80
20568;DHT22;10442;49.932;11.592;2023-02-28T10:11:15;4.80;54.20
20568;DHT22;10442;49.932;11.592;2023-02-28T10:16:48;5.00;53.70
20568;DHT22;10442;49.932;11.592;2023-02-28T10:19:26;5.10;53.90
20568;DHT22;10442;49.932;11.592;2023-02-28T10:22:14;5.10;53.60
20568;DHT22;10442;49.932;11.592;2023-02-28T10:24:48;5.20;53.10
20568;DHT22;10442;49.932;11.592;2023-02-28T10:27:21;5.20;52.70
20568;DHT22;10442;49.932;11.592;2023-02-28T10:29:54;5.10;52.40
20568;DHT22;10442;49.932;11.592;2023-02-28T10:32:25;5.10;52.00
20568;DHT22;10442;49.932;11.592;2023-02-28T10:37:37;5.00;52.40
20568;DHT22;10442;49.932;11.592;2023-02-28T10:43:03;4.90;52.40
20568;DHT22;10442;49.932;11.592;2023-02-28T10:45:33;4.90;52.60
20568;DHT22;10442;49.932;11.592;2023-02-28T10:55:43;4.90;52.80
20568;DHT22;10442;49.932;11.592;2023-02-28T10:58:21;4.90;52.70
20568;DHT22;10442;49.932;11.592;2023-02-28T11:00:51;4.90;53.40
20568;DHT22;10442;49.932;11.592;2023-02-28T11:03:34;5.00;53.20
20568;DHT22;10442;49.932;11.592;2023-02-28T11:06:26;5.10;53.30
20568;DHT22;10442;49.932;11.592;2023-02-28T11:09:17;5.20;53.10
20568;DHT22;10442;49.932;11.592;2023-02-28T11:11:46;5.30;53.10
20568;DHT22;10442;49.932;11.592;2023-02-28T11:14:21;5.40;52.40
20568;DHT22;10442;49.932;11.592;2023-02-28T11:16:51;5.40;53.30
20568;DHT22;10442;49.932;11.592;2023-02-28T11:19:28;5.50;52.60
20568;DHT22;10442;49.932;11.592;2023-02-28T11:21:59;5.50;53.10
20568;DHT22;10442;49.932;11.592;2023-02-28T11:26:58;5.60;52.50
20568;DHT22;10442;49.932;11.592;2023-02-28T11:29:33;5.60;51.90
20568;DHT22;10442;49.932;11.592;2023-02-28T11:32:21;5.60;51.80
20568;DHT22;10442;49.932;11.592;2023-02-28T11:37:37;5.70;52.10
20568;DHT22;10442;49.932;11.592;2023-02-28T11:40:21;5.70;51.70
20568;DHT22;10442;49.932;11.592;2023-02-28T11:46:18;5.80;52.50
20568;DHT22;10442;49.932;11.592;2023-02-28T11:51:35;5.80;51.50
20568;DHT22;10442;49.932;11.592;2023-02-28T11:54:31;5.80;51.20
20568;DHT22;10442;49.932;11.592;2023-02-28T12:00:25;5.90;52.20
20568;DHT22;10442;49.932;11.592;2023-02-28T12:06:18;6.00;51.20
20568;DHT22;10442;49.932;11.592;2023-02-28T12:09:11;6.10;51.80
20568;DHT22;10442;49.932;11.592;2023-02-28T12:11:51;6.10;51.60
20568;DHT22;10442;49.932;11.592;2023-02-28T12:25:38;6.20;50.70
20568;DHT22;10442;49.932;11.592;2023-02-28T12:28:11;6.30;50.60
20568;DHT22;10442;49.932;11.592;2023-02-28T12:30:50;6.30;50.80
20568;DHT22;10442;49.932;11.592;2023-02-28T12:33:23;6.40;51.50
20568;DHT22;10442;49.932;11.592;2023-02-28T12:35:56;6.40;51.10
20568;DHT22;10442;49.932;11.592;2023-02-28T12:38:29;6.50;51.40
20568;DHT22;10442;49.932;11.592;2023-02-28T12:41:04;6.50;52.00
20568;DHT22;10442;49.932;11.592;2023-02-28T12:43:44;6.60;50.70
20568;DHT22;10442;49.932;11.592;2023-02-28T12:46:23;6.60;50.60
20568;DHT22;10442;49.932;11.592;2023-02-28T12:48:55;6.60;50.20
20568;DHT22;10442;49.932;11.592;2023-02-28T12:51:25;6.70;50.40
20568;DHT22;10442;49.932;11.592;2023-02-28T12:54:11;6.70;50.30
20568;DHT22;10442;49.932;11.592;2023-02-28T12:59:27;6.70;50.20
20568;DHT22;10442;49.932;11.592;2023-02-28T13:10:46;6.70;50.00
20568;DHT22;10442;49.932;11.592;2023-02-28T13:13:18;6.70;49.50
20568;DHT22;10442;49.932;11.592;2023-02-28T13:16:09;6.70;49.50
20568;DHT22;10442;49.932;11.592;2023-02-28T13:18:45;6.70;50.20
20568;DHT22;10442;49.932;11.592;2023-02-28T13:21:30;6.80;50.60
20568;DHT22;10442;49.932;11.592;2023-02-28T13:24:03;6.80;50.40
20568;DHT22;10442;49.932;11.592;2023-02-28T13:34:39;6.80;50.00
20568;DHT22;10442;49.932;11.592;2023-02-28T13:39:57;6.80;49.70
20568;DHT22;10442;49.932;11.592;2023-02-28T13:42:47;6.80;49.70
20568;DHT22;10442;49.932;11.592;2023-02-28T13:48:02;6.90;49.80
20568;DHT22;10442;49.932;11.592;2023-02-28T13:50:35;6.90;49.80
20568;DHT22;10442;49.932;11.592;2023-02-28T13:55:49;6.90;49.30
20568;DHT22;10442;49.932;11.592;2023-02-28T14:04:25;6.90;49.80
20568;DHT22;10442;49.932;11.592;2023-02-28T14:07:01;6.90;49.60
20568;DHT22;10442;49.932;11.592;2023-02-28T14:09:32;6.90;49.00
20568;DHT22;10442;49.932;11.592;2023-02-28T14:15:44;7.00;49.20
20568;DHT22;10442;49.932;11.592;2023-02-28T14:20:47;7.00;49.30
20568;DHT22;10442;49.932;11.592;2023-02-28T14:23:25;7.00;49.10
20568;DHT22;10442;49.932;11.592;2023-02-28T14:26:18;7.00;49.60
20568;DHT22;10442;49.932;11.592;2023-02-28T14:31:41;6.90;49.90
20568;DHT22;10442;49.932;11.592;2023-02-28T14:34:31;6.90;50.00
20568;DHT22;10442;49.932;11.592;2023-02-28T14:37:03;6.90;50.10
20568;DHT22;10442;49.932;11.592;2023-02-28T14:39:31;6.90;49.80
20568;DHT22;10442;49.932;11.592;2023-02-28T14:42:00;6.90;49.90
20568;DHT22;10442;49.932;11.592;2023-02-28T14:44:32;6.90;50.00
20568;DHT22;10442;49.932;11.592;2023-02-28T14:47:01;6.90;49.20
20568;DHT22;10442;49.932;11.592;2023-02-28T14:49:42;6.90;49.20
20568;DHT22;10442;49.932;11.592;2023-02-28T14:52:22;6.90;49.00
20568;DHT22;10442;49.932;11.592;2023-02-28T14:54:56;7.00;49.00
20568;DHT22;10442;49.932;11.592;2023-02-28T14:57:33;6.90;49.20
20568;DHT22;10442;49.932;11.592;2023-02-28T15:00:14;6.90;49.10
20568;DHT22;10442;49.932;11.592;2023-02-28T15:02:43;6.90;49.70
20568;DHT22;10442;49.932;11.592;2023-02-28T15:07:44;6.90;50.00
20568;DHT22;10442;49.932;11.592;2023-02-28T15:10:26;6.80;49.60
20568;DHT22;10442;49.932;11.592;2023-02-28T15:18:33;6.80;49.40
20568;DHT22;10442;49.932;11.592;2023-02-28T15:21:06;6.80;49.50
20568;DHT22;10442;49.932;11.592;2023-02-28T15:23:36;6.70;49.90
20568;DHT22;10442;49.932;11.592;2023-02-28T15:26:04;6.80;50.00
20568;DHT22;10442;49.932;11.592;2023-02-28T15:28:32;6.70;49.80
20568;DHT22;10442;49.932;11.592;2023-02-28T15:31:03;6.60;49.90
20568;DHT22;10442;49.932;11.592;2023-02-28T15:33:53;6.60;49.80
20568;DHT22;10442;49.932;11.592;2023-02-28T15:36:26;6.60;49.70
20568;DHT22;10442;49.932;11.592;2023-02-28T15:38:55;6.60;50.00
20568;DHT22;10442;49.932;11.592;2023-02-28T15:41:37;6.60;50.30
20568;DHT22;10442;49.932;11.592;2023-02-28T15:44:27;6.60;50.50
20568;DHT22;10442;49.932;11.592;2023-02-28T15:47:02;6.60;50.20
20568;DHT22;10442;49.932;11.592;2023-02-28T15:50:01;6.50;50.10
20568;DHT22;10442;49.932;11.592;2023-02-28T15:52:38;6.50;50.00
20568;DHT22;10442;49.932;11.592;2023-02-28T15:57:48;6.50;50.50
20568;DHT22;10442;49.932;11.592;2023-02-28T16:00:22;6.40;50.50
20568;DHT22;10442;49.932;11.592;2023-02-28T16:02:51;6.40;50.60
20568;DHT22;10442;49.932;11.592;2023-02-28T16:05:24;6.40;50.70
20568;DHT22;10442;49.932;11.592;2023-02-28T16:08:01;6.40;50.90
20568;DHT22;10442;49.932;11.592;2023-02-28T16:10:34;6.40;50.90
20568;DHT22;10442;49.932;11.592;2023-02-28T16:13:02;6.30;50.80
20568;DHT22;10442;49.932;11.592;2023-02-28T16:15:35;6.30;50.80
20568;DHT22;10442;49.932;11.592;2023-02-28T16:18:11;6.30;50.80
20568;DHT22;10442;49.932;11.592;2023-02-28T16:20:39;6.30;51.00
20568;DHT22;10442;49.932;11.592;2023-02-28T16:23:09;6.20;51.00
20568;DHT22;10442;49.932;11.592;2023-02-28T16:25:40;6.20;51.00
20568;DHT22;10442;49.932;11.592;2023-02-28T16:28:25;6.20;51.00
20568;DHT22;10442;49.932;11.592;2023-02-28T16:30:57;6.10;50.90
20568;DHT22;10442;49.932;11.592;2023-02-28T16:33:24;6.10;51.00
20568;DHT22;10442;49.932;11.592;2023-02-28T16:35:52;6.10;50.90
20568;DHT22;10442;49.932;11.592;2023-02-28T16:38:19;6.00;51.00
20568;DHT22;10442;49.932;11.592;2023-02-28T16:40:49;6.00;51.10
20568;DHT22;10442;49.932;11.592;2023-02-28T16:43:20;5.90;51.10
20568;DHT22;10442;49.932;11.592;2023-02-28T16:45:57;5.90;51.10
20568;DHT22;10442;49.932;11.592;2023-02-28T16:48:28;5.80;51.20
20568;DHT22;10442;49.932;11.592;2023-02-28T16:50:57;5.80;51.30
20568;DHT22;10442;49.932;11.592;2023-02-28T16:53:25;5.70;51.20
20568;DHT22;10442;49.932;11.592;2023-02-28T16:55:52;5.60;51.30
20568;DHT22;10442;49.932;11.592;2023-02-28T16:58:20;5.60;51.50
20568;DHT22;10442;49.932;11.592;2023-02-28T17:00:49;5.60;51.60
20568;DHT22;10442;49.932;11.592;2023-02-28T17:03:25;5.50;51.60
20568;DHT22;10442;49.932;11.592;2023-02-28T17:06:00;5.50;51.70
20568;DHT22;10442;49.932;11.592;2023-02-28T17:08:29;5.40;51.80
20568;DHT22;10442;49.932;11.592;2023-02-28T17:10:57;5.30;51.90
20568;DHT22;10442;49.932;11.592;2023-02-28T17:13:24;5.30;52.00
20568;DHT22;10442;49.932;11.592;2023-02-28T17:15:52;5.20;52.20
20568;DHT22;10442;49.932;11.592;2023-02-28T17:18:20;5.10;52.20
20568;DHT22;10442;49.932;11.592;2023-02-28T17:20:48;5.10;52.30
20568;DHT22;10442;49.932;11.592;2023-02-28T17:23:16;5.00;52.40
20568;DHT22;10442;49.932;11.592;2023-02-28T17:25:44;5.00;52.40
20568;DHT22;10442;49.932;11.592;2023-02-28T17:28:24;5.00;52.60
20568;DHT22;10442;49.932;11.592;2023-02-28T17:30:51;4.90;52.60
20568;DHT22;10442;49.932;11.592;2023-02-28T17:33:19;4.90;52.60
20568;DHT22;10442;49.932;11.592;2023-02-28T17:35:47;4.90;52.70
20568;DHT22;10442;49.932;11.592;2023-02-28T17:38:19;4.80;52.70
20568;DHT22;10442;49.932;11.592;2023-02-28T17:40:46;4.80;52.70
20568;DHT22;10442;49.932;11.592;2023-02-28T17:43:14;4.80;52.80
20568;DHT22;10442;49.932;11.592;2023-02-28T17:45:42;4.70;52.90
20568;DHT22;10442;49.932;11.592;2023-02-28T17:48:11;4.70;52.80
20568;DHT22;10442;49.932;11.592;2023-02-28T17:50:39;4.70;52.90
20568;DHT22;10442;49.932;11.592;2023-02-28T17:53:06;4.60;53.00
20568;DHT22;10442;49.932;11.592;2023-02-28T17:55:34;4.60;53.10
20568;DHT22;10442;49.932;11.592;2023-02-28T17:58:02;4.60;53.20
20568;DHT22;10442;49.932;11.592;2023-02-28T18:00:30;4.50;53.20
20568;DHT22;10442;49.932;11.592;2023-02-28T18:03:00;4.50;53.30
20568;DHT22;10442;49.932;11.592;2023-02-28T18:05:28;4.40;54.00
20568;DHT22;10442;49.932;11.592;2023-02-28T18:07:56;4.40;53.40
20568;DHT22;10442;49.932;11.592;2023-02-28T18:10:23;4.40;53.50
20568;DHT22;10442;49.932;11.592;2023-02-28T18:12:51;4.30;53.50
20568;DHT22;10442;49.932;11.592;2023-02-28T18:15:20;4.30;53.60